Terminal Aerodrome Forecast
Issued by NWS

Home | Current Version | Previous Version | Text Only | Print | Product List | Glossary On
Versions: 1 2 3 4 5 6 7 8 9 10 11 12 13 14 15
000
FTUS46 KOTX 311120
TAFSFF
TAF
KSFF 311120Z 3112/0112 07003KT P6SM FEW250
     FM311800 03004KT P6SM FEW150 SCT200
     FM010200 VRB02KT P6SM SCT130 BKN200
     FM010600 00000KT P6SM BKN250=

USA.gov is the U.S. government's official web portal to all federal, state and local government web resources and services.